PWSweather.com
Personal Weather Stations
Station Observations
NBW76
Silver Creek, North Bend, WA 98065

Silver CreekNorth Bend, WA 98065

Lat: 47.4993612, Lon: -121.7783245

Elevation: 443

Station Type: Davisd VP2 + Solar + UV + Webcam

Latest ConditionsUpdated 6:20:01 AM PDT Saturday, Mar 25, 2017
Currently Today's Max Today's Min Today's Average
Temperature 41.7°F5.4°C 44.9°F7.2°C 41.5°F5.3°C 43.0°F6.1°C
Dew Point 39.0°F3.9°C 41.2°F5.1°C 39.0°F3.9°C 39.7°F4.3°C
Winds 2.3 mph NE3.7 kmh NE 8.1 mph E13.0 kmh E - 3.1 mph 5.0 kmh
Wind Gusts 2.3 mph3.7 kmh 13.8 mph22.2 kmh - -
Humidity 90% 91% 81% 88%
Pressure 30.05 in1017.6 mb 30.05 in1017.6 mb 30.01 in1016.3 mb -
Precipitation - 0.07 in1.8 mm - -
Hour Temp Dew Point Humidity Winds Wind Gusts Pressure Precip Precip Rate Daily Precip Total
06:20 AM 41.7°F5.4°C 39.0°F3.9°C 90% 2.3 mph NE3.7 kmh NE 2.3 mph3.7 kmh 30.05 in1017.6 mb - 0.00 in0.0 mm 0.07 in1.8 mm
06:10 AM 41.8°F5.4°C 39.1°F3.9°C 90% 1.2 mph ESE1.9 kmh ESE 5.8 mph9.3 kmh 30.05 in1017.6 mb - 0.00 in0.0 mm 0.07 in1.8 mm
06:00 AM 41.7°F5.4°C 39.0°F3.9°C 90% 2.3 mph ESE3.7 kmh ESE 9.2 mph14.8 kmh 30.05 in1017.6 mb - 0.00 in0.0 mm 0.07 in1.8 mm
05:50 AM 41.8°F5.4°C 39.1°F3.9°C 90% 3.5 mph ESE5.6 kmh ESE 5.8 mph9.3 kmh 30.05 in1017.6 mb - 0.00 in0.0 mm 0.07 in1.8 mm
05:40 AM 41.7°F5.4°C 39.3°F4.1°C 91% 2.3 mph NE3.7 kmh NE 3.5 mph5.6 kmh 30.04 in1017.3 mb - 0.00 in0.0 mm 0.07 in1.8 mm
05:30 AM 41.5°F5.3°C 39.1°F3.9°C 91% 2.3 mph E3.7 kmh E 11.5 mph18.5 kmh 30.04 in1017.3 mb - 0.00 in0.0 mm 0.07 in1.8 mm
05:20 AM 41.6°F5.3°C 39.2°F4.0°C 91% 2.3 mph SE3.7 kmh SE 5.8 mph9.3 kmh 30.04 in1017.3 mb - 0.01 in0.3 mm 0.07 in1.8 mm
05:10 AM 41.7°F5.4°C 39.3°F4.1°C 91% 4.6 mph NE7.4 kmh NE 9.2 mph14.8 kmh 30.04 in1017.3 mb - 0.00 in0.0 mm 0.06 in1.5 mm
05:00 AM 41.9°F5.5°C 39.2°F4.0°C 90% 2.3 mph ESE3.7 kmh ESE 3.5 mph5.6 kmh 30.04 in1017.3 mb - 0.00 in0.0 mm 0.06 in1.5 mm
04:50 AM 42.1°F5.6°C 39.4°F4.1°C 90% 2.3 mph SE3.7 kmh SE 4.6 mph7.4 kmh 30.04 in1017.3 mb - 0.01 in0.3 mm 0.06 in1.5 mm
04:40 AM 41.6°F5.3°C 39.2°F4.0°C 91% 2.3 mph ESE3.7 kmh ESE 3.5 mph5.6 kmh 30.04 in1017.3 mb - 0.00 in0.0 mm 0.05 in1.3 mm
04:30 AM 41.7°F5.4°C 39.0°F3.9°C 90% 1.2 mph SE1.9 kmh SE 4.6 mph7.4 kmh 30.03 in1016.9 mb - 0.00 in0.0 mm 0.05 in1.3 mm
04:20 AM 42.0°F5.6°C 39.3°F4.1°C 90% 3.5 mph E5.6 kmh E 5.8 mph9.3 kmh 30.03 in1016.9 mb - 0.00 in0.0 mm 0.05 in1.3 mm
04:10 AM 42.2°F5.7°C 39.2°F4.0°C 89% 2.3 mph ESE3.7 kmh ESE 4.6 mph7.4 kmh 30.03 in1016.9 mb - 0.00 in0.0 mm 0.05 in1.3 mm
04:00 AM 42.2°F5.7°C 39.2°F4.0°C 89% 3.5 mph SE5.6 kmh SE 6.9 mph11.1 kmh 30.03 in1016.9 mb - 0.01 in0.3 mm 0.05 in1.3 mm
03:50 AM 42.9°F6.1°C 39.0°F3.9°C 86% 4.6 mph ENE7.4 kmh ENE 6.9 mph11.1 kmh 30.03 in1016.9 mb - 0.00 in0.0 mm 0.04 in1.0 mm
03:40 AM 43.3°F6.3°C 39.4°F4.1°C 86% 8.1 mph E13.0 kmh E 13.8 mph22.2 kmh 30.03 in1016.9 mb - 0.00 in0.0 mm 0.04 in1.0 mm
03:30 AM 43.4°F6.3°C 39.8°F4.3°C 87% 6.9 mph ESE11.1 kmh ESE 6.9 mph11.1 kmh 30.03 in1016.9 mb - 0.01 in0.3 mm 0.04 in1.0 mm
03:20 AM 43.6°F6.4°C 39.4°F4.1°C 85% 4.6 mph SE7.4 kmh SE 5.8 mph9.3 kmh 30.04 in1017.3 mb - 0.01 in0.3 mm 0.03 in0.8 mm
03:10 AM 43.7°F6.5°C 39.5°F4.2°C 85% 5.8 mph SE9.3 kmh SE 11.5 mph18.5 kmh 30.03 in1016.9 mb - 0.01 in0.3 mm 0.02 in0.5 mm
03:00 AM 44.8°F7.1°C 39.3°F4.1°C 81% 5.8 mph E9.3 kmh E 8.1 mph13.0 kmh 30.03 in1016.9 mb - 0.01 in0.3 mm 0.02 in0.5 mm
02:50 AM 43.2°F6.2°C 39.6°F4.2°C 87% 2.3 mph SE3.7 kmh SE 3.5 mph5.6 kmh 30.03 in1016.9 mb - 0.00 in0.0 mm 0.01 in0.3 mm
02:40 AM 43.3°F6.3°C 39.4°F4.1°C 86% 5.8 mph E9.3 kmh E 10.4 mph16.7 kmh 30.03 in1016.9 mb - 0.00 in0.0 mm 0.01 in0.3 mm
02:30 AM 43.6°F6.4°C 39.4°F4.1°C 85% 4.6 mph ESE7.4 kmh ESE 8.1 mph13.0 kmh 30.03 in1016.9 mb - 0.00 in0.0 mm 0.01 in0.3 mm
02:20 AM 44.6°F7.0°C 39.4°F4.1°C 82% 2.3 mph E3.7 kmh E 10.4 mph16.7 kmh 30.03 in1016.9 mb - 0.00 in0.0 mm 0.01 in0.3 mm
02:10 AM 43.9°F6.6°C 40.0°F4.4°C 86% 5.8 mph SE9.3 kmh SE 9.2 mph14.8 kmh 30.03 in1016.9 mb - 0.00 in0.0 mm 0.01 in0.3 mm
02:00 AM 43.7°F6.5°C 39.8°F4.3°C 86% 1.2 mph NE1.9 kmh NE 2.3 mph3.7 kmh 30.03 in1016.9 mb - 0.00 in0.0 mm 0.01 in0.3 mm
01:50 AM 44.2°F6.8°C 39.6°F4.2°C 84% 1.2 mph E1.9 kmh E 3.5 mph5.6 kmh 30.03 in1016.9 mb - 0.00 in0.0 mm 0.01 in0.3 mm
01:40 AM 44.9°F7.2°C 39.7°F4.3°C 82% 2.3 mph E3.7 kmh E 3.5 mph5.6 kmh 30.03 in1016.9 mb - 0.00 in0.0 mm 0.01 in0.3 mm
01:30 AM 44.2°F6.8°C 40.6°F4.8°C 87% 2.3 mph E3.7 kmh E 3.5 mph5.6 kmh 30.03 in1016.9 mb - 0.00 in0.0 mm 0.01 in0.3 mm
01:20 AM 43.7°F6.5°C 41.0°F5.0°C 90% 4.6 mph ESE7.4 kmh ESE 11.5 mph18.5 kmh 30.03 in1016.9 mb - 0.00 in0.0 mm 0.01 in0.3 mm
01:10 AM 43.4°F6.3°C 40.9°F4.9°C 91% 2.3 mph ENE3.7 kmh ENE 3.5 mph5.6 kmh 30.03 in1016.9 mb - 0.00 in0.0 mm 0.01 in0.3 mm
01:00 AM 43.4°F6.3°C 40.9°F4.9°C 91% 1.2 mph E1.9 kmh E 3.5 mph5.6 kmh 30.03 in1016.9 mb - 0.01 in0.3 mm 0.01 in0.3 mm
12:50 AM 43.4°F6.3°C 40.9°F4.9°C 91% 1.2 mph E1.9 kmh E 3.5 mph5.6 kmh 30.03 in1016.9 mb - 0.00 in0.0 mm 0.00 in0.0 mm
12:40 AM 43.5°F6.4°C 41.0°F5.0°C 91% 1.2 mph S1.9 kmh S 2.3 mph3.7 kmh 30.02 in1016.6 mb - 0.00 in0.0 mm 0.00 in0.0 mm
12:30 AM 43.4°F6.3°C 40.9°F4.9°C 91% 1.2 mph S1.9 kmh S 1.2 mph1.9 kmh 30.02 in1016.6 mb - 0.00 in0.0 mm 0.00 in0.0 mm
12:20 AM 43.7°F6.5°C 41.2°F5.1°C 91% 2.3 mph WNW3.7 kmh WNW 3.5 mph5.6 kmh 30.02 in1016.6 mb - 0.00 in0.0 mm 0.00 in0.0 mm
12:10 AM 43.7°F6.5°C 40.7°F4.8°C 89% 1.2 mph E1.9 kmh E 2.3 mph3.7 kmh 30.01 in1016.3 mb - 0.00 in0.0 mm 0.00 in0.0 mm
12:00 AM 44.0°F6.7°C 41.2°F5.1°C 90% 2.3 mph NE3.7 kmh NE 2.3 mph3.7 kmh 30.01 in1016.3 mb - 0.00 in0.0 mm 0.00 in0.0 mm